Time;durP1;ratioP1;P1;durP2;ratioP2;P2;SDS_P1;SDS_P2;PMS_P1;PMS_P2;Temp;Humidity;BMP_temperature;BMP_pressure;BME280_temperature;BME280_humidity;BME280_pressure;Samples;Min_cycle;Max_cycle;Signal;HPM_P1;HPM_P2
2023/10/29 00:00:11;;;;;;;4.87;3.23;;;12.20;97.30;;;13.69;72.74;99551.91;3080560;46;20439;-67
2023/10/29 00:02:39;;;;;;;4.50;2.90;;;12.20;97.30;;;13.67;72.85;99546.03;3080868;46;20460;-68
2023/10/29 00:05:08;;;;;;;4.67;3.20;;;12.20;97.20;;;13.67;72.87;99548.69;3081145;46;20455;-68
2023/10/29 00:07:36;;;;;;;5.17;2.57;;;12.20;97.30;;;13.68;73.14;99531.75;3081295;46;20542;-66
2023/10/29 00:10:09;;;;;;;3.80;2.73;;;12.20;97.30;;;13.70;73.34;99524.41;3080458;46;20464;-70
2023/10/29 00:12:37;;;;;;;3.23;2.63;;;12.30;97.30;;;13.69;73.27;99530.75;3080455;46;20427;-67
2023/10/29 00:15:06;;;;;;;3.00;2.60;;;12.20;97.30;;;13.65;73.36;99532.19;3081257;46;21533;-67
2023/10/29 00:17:35;;;;;;;4.10;3.30;;;12.20;97.40;;;13.64;73.78;99538.53;3081118;46;21021;-67
2023/10/29 00:20:07;;;;;;;5.70;3.80;;;12.30;97.40;;;13.62;74.17;99543.25;3080226;46;20450;-66
2023/10/29 00:22:35;;;;;;;4.57;2.67;;;12.30;97.50;;;13.61;74.12;99521.28;3080733;46;20459;-67
2023/10/29 00:25:04;;;;;;;3.83;2.67;;;12.30;97.60;;;13.61;74.17;99499.31;3080563;46;21073;-67
2023/10/29 00:27:33;;;;;;;5.47;3.10;;;12.30;97.60;;;13.57;74.09;99483.91;3080548;46;20427;-67
2023/10/29 00:30:01;;;;;;;5.90;3.40;;;12.30;97.60;;;13.58;74.49;99472.31;3080229;46;20467;-67
2023/10/29 00:32:30;;;;;;;4.43;3.13;;;12.30;97.70;;;13.57;74.84;99457.47;3080443;46;21070;-67
2023/10/29 00:35:00;;;;;;;4.63;2.90;;;12.20;97.70;;;13.60;74.63;99476.56;3079620;46;20463;-66
2023/10/29 00:37:28;;;;;;;5.20;3.40;;;12.20;97.70;;;13.61;74.38;99500.13;3080736;46;20427;-67
2023/10/29 00:39:57;;;;;;;4.60;3.43;;;12.20;97.80;;;13.61;74.64;99505.41;3080167;46;20439;-67
2023/10/29 00:42:25;;;;;;;4.80;3.43;;;12.20;97.90;;;13.61;75.10;99492.19;3080491;46;20431;-67
2023/10/29 00:44:54;;;;;;;4.60;3.40;;;12.20;98.00;;;13.63;74.81;99482.19;3080933;46;20446;-66
2023/10/29 00:47:22;;;;;;;4.07;2.87;;;12.30;98.00;;;13.64;75.04;99477.72;3080643;46;20427;-67
2023/10/29 00:49:52;;;;;;;4.77;3.40;;;12.20;98.00;;;13.62;75.33;99482.44;3079495;46;20545;-67
2023/10/29 00:52:21;;;;;;;3.70;3.10;;;12.30;98.10;;;13.61;75.52;99480.81;3080495;46;21030;-67
2023/10/29 00:54:49;;;;;;;4.10;3.20;;;12.30;98.10;;;13.63;75.26;99482.19;3080355;46;20449;-69
2023/10/29 00:57:18;;;;;;;4.67;3.30;;;12.30;98.20;;;13.63;75.47;99466.34;3079854;46;20550;-67
2023/10/29 00:59:47;;;;;;;4.93;3.73;;;12.30;98.30;;;13.62;75.72;99469.22;3079979;46;21058;-67
2023/10/29 01:02:16;;;;;;;4.63;3.10;;;12.30;98.30;;;13.65;75.36;99461.63;3080562;46;20445;-67
2023/10/29 01:04:45;;;;;;;6.97;3.20;;;12.30;98.30;;;13.69;75.44;99473.38;3080902;46;20443;-67
2023/10/29 01:07:13;;;;;;;4.03;2.90;;;12.30;98.40;;;13.69;75.65;99454.06;3080480;46;20515;-69
2023/10/29 01:09:43;;;;;;;6.17;3.63;;;12.30;98.70;;;13.68;75.53;99458.53;3078828;46;20476;-69
2023/10/29 01:12:19;;;;;;;4.13;3.07;;;12.30;98.40;;;13.63;76.05;99454.94;3080697;46;20451;-68
2023/10/29 01:14:48;;;;;;;5.50;3.23;;;12.30;98.50;;;13.57;76.15;99446.09;3080442;46;20456;-68
2023/10/29 01:17:20;;;;;;;4.07;3.00;;;12.30;98.50;;;13.56;76.34;99445.28;3080670;46;20438;-67
2023/10/29 01:19:49;;;;;;;5.17;3.30;;;12.30;98.60;;;13.60;76.33;99442.97;3079729;46;21025;-68
2023/10/29 01:22:18;;;;;;;5.07;3.37;;;12.30;98.60;;;13.64;76.59;99430.13;3080870;46;20598;-67
2023/10/29 01:24:46;;;;;;;4.33;3.80;;;12.30;98.70;;;13.63;76.54;99423.22;3080992;46;20432;-68
2023/10/29 01:27:16;;;;;;;6.33;3.77;;;12.30;98.80;;;13.60;76.67;99405.97;3079679;46;21052;-67
2023/10/29 01:29:44;;;;;;;4.10;3.27;;;12.30;98.80;;;13.64;77.02;99408.97;3079635;46;20459;-67
2023/10/29 01:32:14;;;;;;;4.30;3.40;;;12.30;98.90;;;13.67;76.68;99405.88;3080775;46;20427;-67
2023/10/29 01:34:42;;;;;;;6.10;3.47;;;12.30;98.80;;;13.65;77.32;99405.28;3080286;46;20431;-67
2023/10/29 01:37:10;;;;;;;4.23;3.70;;;12.30;98.90;;;13.66;76.92;99401.63;3080076;46;21015;-67
2023/10/29 01:39:39;;;;;;;5.47;3.97;;;12.40;99.00;;;13.67;77.29;99393.44;3078969;46;20439;-67
2023/10/29 01:42:08;;;;;;;9.07;4.93;;;12.40;99.10;;;13.72;77.44;99384.84;3079886;46;20580;-67
2023/10/29 01:44:36;;;;;;;5.63;4.20;;;12.40;99.10;;;13.74;77.14;99374.84;3080187;46;20560;-67
2023/10/29 01:47:05;;;;;;;5.27;4.03;;;12.40;99.20;;;13.75;77.11;99379.09;3080105;46;20429;-68
2023/10/29 01:49:34;;;;;;;4.97;3.77;;;12.40;99.20;;;13.76;77.11;99364.84;3079033;46;20435;-67
2023/10/29 01:52:02;;;;;;;6.03;3.87;;;12.40;99.20;;;13.74;77.66;99362.41;3080333;46;20427;-67
2023/10/29 01:54:31;;;;;;;6.50;3.90;;;12.40;99.20;;;13.74;77.62;99359.00;3081639;46;20453;-66
2023/10/29 01:57:00;;;;;;;5.50;3.70;;;12.40;99.30;;;13.72;77.89;99350.47;3082539;46;21371;-67
2023/10/29 01:59:29;;;;;;;5.03;3.53;;;12.40;99.30;;;13.73;78.20;99341.50;3081613;46;21021;-70
2023/10/29 02:01:58;;;;;;;3.80;3.50;;;12.40;99.30;;;13.74;77.91;99332.56;3082994;46;21057;-67
2023/10/29 02:04:26;;;;;;;3.57;3.27;;;12.40;99.40;;;13.78;78.18;99336.34;3082538;46;20431;-67
2023/10/29 02:06:55;;;;;;;6.10;3.80;;;12.50;99.50;;;13.80;78.39;99323.69;3082396;46;20484;-69
2023/10/29 02:09:24;;;;;;;4.93;4.00;;;12.50;99.50;;;13.78;78.39;99315.19;3082019;46;20438;-68
2023/10/29 02:11:52;;;;;;;4.17;3.87;;;12.50;99.60;;;13.79;78.21;99312.28;3082337;46;20426;-68
2023/10/29 02:14:21;;;;;;;4.60;3.37;;;12.50;99.60;;;13.82;78.14;99306.56;3082484;46;20455;-67
2023/10/29 02:16:50;;;;;;;3.33;3.03;;;12.50;99.60;;;13.81;78.51;99298.88;3081474;46;20526;-67
2023/10/29 02:19:18;;;;;;;4.93;3.60;;;12.50;99.60;;;13.82;78.44;99303.09;3081897;46;20434;-67
2023/10/29 02:21:46;;;;;;;4.70;3.67;;;12.50;99.60;;;13.81;78.48;99298.88;3082129;46;20430;-68
2023/10/29 02:24:15;;;;;;;5.50;4.07;;;12.50;99.70;;;13.79;78.71;99290.31;3082124;46;20431;-68
2023/10/29 02:26:43;;;;;;;6.07;3.83;;;12.60;99.70;;;13.81;79.08;99289.06;3081345;46;20469;-66
2023/10/29 02:29:11;;;;;;;4.20;3.67;;;12.60;99.70;;;13.86;78.72;99288.41;3081382;46;21063;-67
2023/10/29 02:31:40;;;;;;;5.67;3.40;;;12.60;99.80;;;13.89;78.48;99274.69;3081883;46;20460;-68
2023/10/29 02:34:08;;;;;;;3.53;3.23;;;12.60;99.80;;;13.91;78.91;99267.31;3082029;46;20439;-68
2023/10/29 02:36:37;;;;;;;4.13;2.90;;;12.60;99.80;;;13.90;78.59;99257.78;3082199;46;20465;-67
2023/10/29 02:39:06;;;;;;;4.83;3.13;;;12.60;99.90;;;13.90;79.07;99255.16;3081444;46;20447;-68
2023/10/29 02:41:34;;;;;;;5.33;3.03;;;12.60;99.90;;;13.91;79.29;99252.25;3081765;46;20429;-70
2023/10/29 02:44:03;;;;;;;4.90;2.87;;;12.70;99.90;;;13.95;78.94;99248.09;3082091;46;20454;-67
2023/10/29 02:46:31;;;;;;;4.77;3.27;;;12.70;99.90;;;13.96;79.06;99249.72;3081714;46;20549;-68
2023/10/29 02:49:00;;;;;;;3.57;3.20;;;12.70;99.90;;;14.01;79.27;99255.13;3081757;46;20481;-68
2023/10/29 02:51:28;;;;;;;3.63;2.93;;;12.70;99.90;;;14.03;79.01;99236.38;3081680;46;20477;-67
2023/10/29 02:53:57;;;;;;;3.53;3.10;;;12.70;99.90;;;14.05;79.06;99229.00;3081652;46;20429;-68
2023/10/29 02:56:25;;;;;;;3.33;2.93;;;12.80;99.90;;;14.06;78.85;99226.13;3082147;46;20432;-67
2023/10/29 02:58:53;;;;;;;3.30;2.90;;;12.80;99.90;;;14.06;78.87;99220.03;3081579;46;21096;-68
2023/10/29 03:01:22;;;;;;;3.63;3.33;;;12.80;99.90;;;14.09;78.73;99216.94;3080143;46;20521;-69
2023/10/29 03:03:51;;;;;;;4.27;3.10;;;12.80;99.90;;;14.08;78.63;99204.72;3080561;46;20541;-68
2023/10/29 03:06:19;;;;;;;5.63;2.90;;;12.80;99.90;;;14.12;78.66;99200.59;3080946;46;20427;-69
2023/10/29 03:08:48;;;;;;;3.87;3.20;;;12.80;99.90;;;14.15;78.62;99219.44;3081314;46;21013;-67
2023/10/29 03:11:16;;;;;;;3.40;3.00;;;12.80;99.90;;;14.18;78.57;99215.50;3081406;46;20520;-67
2023/10/29 03:13:45;;;;;;;2.77;2.43;;;12.80;99.90;;;14.17;78.55;99221.81;3082155;46;20549;-67
2023/10/29 03:16:13;;;;;;;3.67;2.60;;;12.90;99.90;;;14.14;78.79;99217.03;3081392;46;20439;-67
2023/10/29 03:18:41;;;;;;;3.67;3.30;;;12.90;99.90;;;14.19;78.66;99204.69;3081119;46;20536;-69
2023/10/29 03:21:18;;;;;;;4.63;2.83;;;12.90;99.90;;;14.24;78.65;99198.69;3074859;46;20463;-70
2023/10/29 03:23:55;;;;;;;3.00;2.70;;;12.90;99.90;;;14.26;78.49;99191.34;3078015;46;21085;-68
2023/10/29 03:26:27;;;;;;;4.80;2.77;;;12.90;99.80;;;14.27;78.03;99193.72;3080142;46;20476;-69
2023/10/29 03:28:58;;;;;;;3.33;3.03;;;12.90;99.80;;;14.25;78.04;99187.06;3079958;46;20454;-68
2023/10/29 03:31:26;;;;;;;3.70;2.23;;;12.90;99.80;;;14.28;78.25;99173.38;3080679;46;20439;-66
2023/10/29 03:33:55;;;;;;;4.80;2.53;;;12.90;99.80;;;14.27;78.45;99179.69;3081070;46;21110;-67
2023/10/29 03:36:23;;;;;;;3.33;2.57;;;12.90;99.70;;;14.27;78.23;99192.91;3081498;46;20476;-67
2023/10/29 03:38:52;;;;;;;3.30;2.53;;;13.00;99.80;;;14.32;78.05;99200.19;3080899;46;20447;-68
2023/10/29 03:41:22;;;;;;;2.60;2.40;;;13.00;99.80;;;14.35;77.99;99189.94;3080812;46;20470;-69
2023/10/29 03:43:50;;;;;;;2.50;2.20;;;13.00;99.80;;;14.38;77.96;99172.78;3081485;46;20501;-67
2023/10/29 03:46:22;;;;;;;3.03;2.20;;;13.00;99.80;;;14.39;77.58;99174.38;3080312;46;20485;-69
2023/10/29 03:48:50;;;;;;;2.80;2.40;;;13.00;99.70;;;14.39;77.89;99177.00;3079092;46;20427;-68
2023/10/29 03:51:19;;;;;;;2.97;2.00;;;13.00;99.70;;;14.40;77.80;99187.38;3080912;46;21127;-67
2023/10/29 03:53:48;;;;;;;4.47;2.10;;;13.00;99.60;;;14.42;77.79;99190.59;3081815;46;20452;-69
2023/10/29 03:56:16;;;;;;;4.27;2.20;;;13.00;99.60;;;14.43;77.57;99178.16;3081211;46;20562;-67
2023/10/29 03:58:45;;;;;;;4.93;2.47;;;13.10;99.60;;;14.44;77.66;99182.41;3081086;46;20462;-67
2023/10/29 04:01:14;;;;;;;4.03;2.57;;;13.10;99.60;;;14.43;77.47;99171.00;3080278;46;20474;-67
2023/10/29 04:03:43;;;;;;;3.53;2.30;;;13.10;99.60;;;14.45;77.48;99173.44;3081762;46;20431;-68
2023/10/29 04:06:12;;;;;;;2.77;2.40;;;13.10;99.60;;;14.46;77.43;99175.84;3080985;46;21038;-67
2023/10/29 04:08:41;;;;;;;3.30;2.27;;;13.10;99.50;;;14.45;77.23;99184.84;3080913;46;20477;-66
2023/10/29 04:11:10;;;;;;;3.30;2.10;;;13.10;99.50;;;14.45;77.49;99182.19;3080153;46;20438;-68
2023/10/29 04:13:38;;;;;;;1.90;1.70;;;13.10;99.50;;;14.45;77.16;99168.94;3081457;46;21104;-67
2023/10/29 04:16:07;;;;;;;4.93;2.60;;;13.10;99.40;;;14.42;77.30;99156.19;3080605;46;20472;-69
2023/10/29 04:18:35;;;;;;;2.93;2.40;;;13.10;99.40;;;14.43;77.27;99165.72;3081246;46;20431;-67
2023/10/29 04:21:06;;;;;;;2.93;2.30;;;13.10;99.40;;;14.44;77.23;99153.28;3079787;46;20467;-68
2023/10/29 04:23:37;;;;;;;3.77;2.07;;;13.10;99.40;;;14.46;77.03;99148.53;3081294;46;20474;-67
2023/10/29 04:26:06;;;;;;;2.77;1.90;;;13.10;99.40;;;14.48;77.21;99146.47;3080787;46;21021;-67
2023/10/29 04:28:34;;;;;;;2.03;1.67;;;13.10;99.40;;;14.51;76.73;99152.09;3080194;46;20430;-69
2023/10/29 04:31:03;;;;;;;3.53;2.17;;;13.10;99.40;;;14.53;77.01;99150.00;3080400;46;20459;-68
2023/10/29 04:33:32;;;;;;;2.10;2.00;;;13.10;99.40;;;14.54;76.62;99135.75;3079913;46;20432;-69
2023/10/29 04:36:01;;;;;;;3.43;1.90;;;13.10;99.40;;;14.55;76.64;99132.03;3081121;46;20478;-69
2023/10/29 04:38:29;;;;;;;3.27;2.30;;;13.10;99.40;;;14.57;76.68;99127.28;3081118;46;20431;-68
2023/10/29 04:40:58;;;;;;;2.83;1.90;;;13.10;99.40;;;14.57;76.58;99124.66;3080113;46;20443;-68
2023/10/29 04:43:26;;;;;;;2.33;2.00;;;13.10;99.40;;;14.59;76.52;99127.88;3081103;46;20984;-67
2023/10/29 04:45:54;;;;;;;2.80;1.80;;;13.20;99.40;;;14.59;76.75;99125.25;3081061;46;20427;-69
2023/10/29 04:48:23;;;;;;;1.63;1.53;;;13.10;99.40;;;14.62;76.31;99127.38;3080696;46;20449;-67
2023/10/29 04:50:51;;;;;;;1.77;1.67;;;13.20;99.40;;;14.64;76.57;99125.28;3080111;46;21021;-68
2023/10/29 04:53:20;;;;;;;3.40;2.00;;;13.20;99.40;;;14.65;76.19;99111.03;3081009;46;20429;-69
2023/10/29 04:55:48;;;;;;;2.70;1.57;;;13.20;99.40;;;14.66;76.19;99109.19;3080916;46;20529;-67
2023/10/29 04:58:16;;;;;;;1.57;1.47;;;13.20;99.30;;;14.64;76.47;99109.41;3080674;46;20622;-70
2023/10/29 05:00:45;;;;;;;3.40;1.70;;;13.20;99.30;;;14.66;76.38;99102.03;3079670;46;20439;-67
2023/10/29 05:03:13;;;;;;;2.20;1.50;;;13.20;99.30;;;14.67;76.46;99098.34;3080957;46;21167;-66
2023/10/29 05:05:42;;;;;;;2.23;1.60;;;13.20;99.20;;;14.65;76.13;99105.72;3080837;46;20462;-67
2023/10/29 05:08:10;;;;;;;3.47;2.10;;;13.20;99.20;;;14.66;76.30;99096.75;3080566;46;21034;-67
2023/10/29 05:10:41;;;;;;;3.47;1.70;;;13.20;99.20;;;14.67;76.42;99095.69;3079669;46;20480;-67
2023/10/29 05:13:10;;;;;;;2.30;1.70;;;13.30;99.20;;;14.66;76.29;99086.16;3080456;46;20550;-67
2023/10/29 05:15:38;;;;;;;2.03;1.70;;;13.30;99.20;;;14.68;76.34;99084.06;3080753;46;20507;-67
2023/10/29 05:18:07;;;;;;;5.07;1.90;;;13.30;99.20;;;14.71;76.29;99088.06;3080301;46;20431;-68
2023/10/29 05:20:37;;;;;;;5.93;1.77;;;13.30;99.20;;;14.72;76.00;99095.78;3079789;46;20439;-68
2023/10/29 05:23:07;;;;;;;2.00;1.80;;;13.30;99.20;;;14.77;75.88;99093.19;3080822;46;21078;-66
2023/10/29 05:25:38;;;;;;;4.27;2.07;;;13.30;99.20;;;14.79;76.00;99085.81;3080416;46;20427;-68
2023/10/29 05:28:07;;;;;;;3.63;1.80;;;13.30;99.10;;;14.80;75.96;99076.84;3080426;46;20431;-67
2023/10/29 05:30:35;;;;;;;2.20;1.50;;;13.40;99.20;;;14.84;75.99;99088.53;3081862;46;20491;-67
2023/10/29 05:33:03;;;;;;;5.03;1.60;;;13.40;99.10;;;14.86;75.42;99094.38;3082548;46;20423;-68
2023/10/29 05:35:32;;;;;;;1.53;1.30;;;13.40;99.10;;;14.88;75.85;99089.66;3083243;46;20449;-69
2023/10/29 05:38:01;;;;;;;1.60;1.50;;;13.40;99.10;;;14.91;75.62;99099.78;3082794;46;20422;-67
2023/10/29 05:40:29;;;;;;;2.33;1.23;;;13.40;99.00;;;14.95;75.62;99096.63;3081503;46;20442;-67
2023/10/29 05:42:57;;;;;;;3.13;1.50;;;13.40;99.30;;;14.96;75.23;99095.59;3083105;46;20456;-67
2023/10/29 05:45:27;;;;;;;2.73;1.83;;;13.50;98.90;;;14.99;75.28;99089.81;3082928;46;20521;-68
2023/10/29 05:47:56;;;;;;;1.93;1.10;;;13.50;99.00;;;15.01;74.93;99099.13;3083152;46;20488;-67
2023/10/29 05:50:25;;;;;;;1.60;1.50;;;13.50;98.90;;;15.02;74.78;99105.22;3081287;46;20556;-68
2023/10/29 05:52:53;;;;;;;3.23;1.53;;;13.50;98.80;;;14.99;74.82;99108.34;3082677;46;20447;-67
2023/10/29 05:55:22;;;;;;;3.27;1.47;;;13.60;98.70;;;15.03;74.94;99101.50;3082814;46;21064;-69
2023/10/29 05:57:51;;;;;;;1.27;1.10;;;13.60;98.70;;;15.06;74.74;99101.84;3082368;46;20427;-69
2023/10/29 06:00:19;;;;;;;1.30;1.20;;;13.60;98.70;;;15.10;74.88;99088.88;3081200;46;20450;-69
2023/10/29 06:02:48;;;;;;;1.70;1.33;;;13.60;98.70;;;15.10;74.52;99087.03;3082439;46;20452;-67
2023/10/29 06:05:17;;;;;;;2.53;1.40;;;13.60;98.60;;;15.14;74.59;99087.38;3082988;46;20519;-67
2023/10/29 06:07:45;;;;;;;1.63;1.20;;;13.70;98.60;;;15.17;74.67;99082.38;3082603;46;20431;-68
2023/10/29 06:10:14;;;;;;;3.70;1.10;;;13.70;98.60;;;15.20;74.37;99086.38;3080428;46;20477;-67
2023/10/29 06:12:43;;;;;;;2.80;1.40;;;13.70;98.60;;;15.22;74.26;99081.63;3082519;46;20427;-67
2023/10/29 06:15:12;;;;;;;1.13;1.03;;;13.70;98.50;;;15.20;74.09;99083.72;3082711;46;20427;-67
2023/10/29 06:17:41;;;;;;;2.40;1.27;;;13.70;98.40;;;15.22;73.89;99089.59;3081726;46;20423;-69
2023/10/29 06:20:16;;;;;;;1.53;1.23;;;13.80;98.40;;;15.22;74.06;99094.88;3081287;46;20464;-67
2023/10/29 06:22:45;;;;;;;2.73;1.23;;;13.70;98.30;;;15.20;74.16;99086.38;3082084;46;20546;-70
2023/10/29 06:25:16;;;;;;;1.67;1.13;;;13.80;98.30;;;15.21;74.06;99098.59;3082190;46;20511;-67
2023/10/29 06:27:44;;;;;;;1.07;0.70;;;13.80;98.20;;;15.17;73.81;99102.75;3081891;46;20438;-68
2023/10/29 06:30:13;;;;;;;1.20;1.10;;;13.80;98.00;;;15.19;74.19;99101.47;3081035;46;20486;-66
2023/10/29 06:32:41;;;;;;;2.07;1.20;;;13.80;98.00;;;15.20;73.98;99124.28;3082577;46;20553;-68
2023/10/29 06:35:11;;;;;;;1.20;1.10;;;13.90;98.00;;;15.31;73.85;99109.31;3081855;46;21034;-69
2023/10/29 06:37:40;;;;;;;3.37;1.23;;;13.90;98.00;;;15.37;73.26;99111.81;3081955;46;20565;-68
2023/10/29 06:40:09;;;;;;;2.87;1.10;;;14.00;97.90;;;15.44;73.30;99115.13;3080890;46;20444;-67
2023/10/29 06:42:38;;;;;;;2.10;1.17;;;14.10;97.90;;;15.51;73.43;99109.63;3082692;46;20515;-68
2023/10/29 06:45:07;;;;;;;1.40;1.00;;;14.10;97.70;;;15.57;72.93;99119.22;3082293;46;20490;-67
2023/10/29 06:47:36;;;;;;;2.20;1.07;;;14.20;97.60;;;15.64;72.59;99103.16;3081942;46;20538;-67
2023/10/29 06:50:05;;;;;;;4.03;1.20;;;14.30;97.50;;;15.64;72.20;99109.28;3080747;46;21163;-68
2023/10/29 06:52:34;;;;;;;1.97;1.13;;;14.30;97.30;;;15.71;72.09;99109.06;3082611;46;20455;-67
2023/10/29 06:55:02;;;;;;;2.50;1.07;;;14.30;97.20;;;15.74;71.80;99104.06;3081622;46;20939;-68
2023/10/29 06:57:30;;;;;;;4.10;1.00;;;14.40;97.00;;;15.75;71.72;99107.53;3081826;46;21085;-68
2023/10/29 07:00:00;;;;;;;2.10;1.20;;;14.40;96.90;;;15.76;71.68;99114.44;3080951;46;20625;-68
2023/10/29 07:02:32;;;;;;;2.23;1.47;;;14.50;96.80;;;15.79;71.49;99100.66;3082083;46;20435;-68
2023/10/29 07:05:00;;;;;;;2.00;0.83;;;14.40;96.70;;;15.83;70.97;99105.22;3081819;46;20456;-68
2023/10/29 07:07:29;;;;;;;1.90;1.20;;;14.50;96.60;;;15.81;70.90;99109.97;3082054;46;20509;-67
2023/10/29 07:09:58;;;;;;;2.80;0.90;;;14.50;96.50;;;15.85;71.08;99119.06;3080582;46;20565;-67
2023/10/29 07:12:26;;;;;;;3.90;1.03;;;14.50;96.40;;;15.84;70.57;99120.09;3082056;46;20522;-68
2023/10/29 07:14:56;;;;;;;0.93;0.83;;;14.60;96.30;;;15.98;70.58;99139.91;3081532;46;21034;-68
2023/10/29 07:17:24;;;;;;;2.17;1.27;;;14.60;96.40;;;16.07;70.31;99133.09;3082057;46;21005;-68
2023/10/29 07:19:53;;;;;;;3.43;1.10;;;14.70;96.40;;;16.07;70.05;99135.75;3080408;46;20472;-69
2023/10/29 07:22:21;;;;;;;1.87;1.10;;;14.70;96.10;;;16.13;69.98;99128.63;3081903;46;20459;-70
2023/10/29 07:24:49;;;;;;;2.83;1.00;;;14.70;96.10;;;16.17;69.88;99125.22;3081768;46;20518;-68
2023/10/29 07:27:18;;;;;;;1.57;0.80;;;14.80;96.00;;;16.19;69.09;99125.78;3081181;46;21009;-67
2023/10/29 07:29:46;;;;;;;2.70;0.93;;;14.80;95.80;;;16.26;69.26;99120.25;3080523;46;20524;-68
2023/10/29 07:32:14;;;;;;;2.00;1.27;;;14.90;95.80;;;16.28;68.98;99121.63;3081838;46;20605;-67
2023/10/29 07:34:43;;;;;;;1.97;1.17;;;14.90;95.60;;;16.26;68.63;99122.91;3081203;46;20557;-68
2023/10/29 07:37:12;;;;;;;2.67;1.00;;;14.90;95.40;;;16.31;68.74;99124.84;3081947;46;20990;-68
2023/10/29 07:39:40;;;;;;;2.30;0.90;;;15.00;95.50;;;16.28;68.59;99126.16;3080419;46;20439;-68
2023/10/29 07:42:09;;;;;;;1.57;0.93;;;15.00;95.30;;;16.35;68.54;99117.97;3082058;46;20456;-67
2023/10/29 07:44:37;;;;;;;2.50;1.10;;;15.00;95.30;;;16.36;68.33;99114.25;3081272;46;20592;-67
2023/10/29 07:47:08;;;;;;;2.07;1.20;;;15.00;95.10;;;16.40;68.40;99118.03;3082038;46;21014;-67
2023/10/29 07:49:39;;;;;;;1.33;0.93;;;15.10;95.20;;;16.42;68.14;99123.88;3080387;46;20549;-66
2023/10/29 07:52:07;;;;;;;1.80;0.80;;;15.10;95.10;;;16.41;68.13;99132.88;3081132;46;21163;-67
2023/10/29 07:54:35;;;;;;;2.73;1.13;;;15.10;95.10;;;16.47;68.12;99131.91;3081239;46;20513;-68
2023/10/29 07:57:04;;;;;;;2.00;1.10;;;15.10;95.10;;;16.52;67.73;99121.34;3081642;46;20456;-67
2023/10/29 07:59:35;;;;;;;4.03;1.00;;;15.10;95.00;;;16.51;67.87;99119.69;3080144;46;20491;-68
2023/10/29 08:02:04;;;;;;;1.87;1.00;;;15.10;94.90;;;16.55;67.66;99126.94;3081557;46;20427;-68
2023/10/29 08:04:32;;;;;;;1.57;1.10;;;15.10;94.90;;;16.59;67.50;99140.53;3081407;46;20493;-69
2023/10/29 08:07:01;;;;;;;2.63;1.10;;;15.20;94.80;;;16.61;67.58;99130.44;3080502;46;20482;-69
2023/10/29 08:09:29;;;;;;;3.33;1.30;;;15.20;94.80;;;16.67;67.37;99137.41;3080945;46;20494;-66
2023/10/29 08:11:58;;;;;;;1.30;0.90;;;15.30;94.80;;;16.68;67.21;99145.13;3081519;46;21173;-68
2023/10/29 08:14:27;;;;;;;3.17;1.07;;;15.30;94.70;;;16.65;67.06;99148.28;3081267;46;20519;-68
2023/10/29 08:16:55;;;;;;;1.57;0.77;;;15.30;94.60;;;16.73;67.05;99150.50;3079433;46;20451;-69
2023/10/29 08:19:26;;;;;;;0.97;0.80;;;15.30;94.60;;;16.75;66.93;99152.88;3081243;46;20439;-67
2023/10/29 08:21:54;;;;;;;2.00;1.07;;;15.40;94.60;;;16.79;66.84;99156.63;3081135;46;20427;-69
2023/10/29 08:24:23;;;;;;;2.13;1.10;;;15.40;94.50;;;16.81;66.85;99157.16;3081485;46;20463;-68
2023/10/29 08:26:51;;;;;;;4.50;1.03;;;15.50;94.50;;;16.89;66.68;99149.53;3080134;46;20428;-66
2023/10/29 08:29:19;;;;;;;2.07;1.17;;;15.50;94.50;;;16.99;66.45;99132.88;3080674;46;20427;-67
2023/10/29 08:31:48;;;;;;;1.37;0.90;;;15.60;94.60;;;17.05;65.94;99146.97;3080892;46;20564;-69
2023/10/29 08:34:16;;;;;;;1.60;1.00;;;15.60;94.30;;;17.18;65.87;99154.53;3080501;46;20453;-68
2023/10/29 08:36:44;;;;;;;1.23;0.90;;;15.70;94.30;;;17.36;65.63;99144.25;3080470;46;20472;-68
2023/10/29 08:39:16;;;;;;;2.23;0.90;;;15.80;94.30;;;17.51;65.50;99156.84;3080050;43;20524;-68
2023/10/29 08:41:44;;;;;;;3.50;1.40;;;15.90;94.30;;;17.62;64.21;99152.41;3080561;46;20520;-68
2023/10/29 08:44:12;;;;;;;2.87;1.07;;;15.90;93.70;;;17.74;64.20;99152.97;3080730;46;21019;-66
2023/10/29 08:46:42;;;;;;;3.90;1.00;;;16.10;93.70;;;17.81;63.83;99151.69;3079589;46;20561;-69
2023/10/29 08:49:12;;;;;;;1.90;1.10;;;16.10;93.50;;;17.81;63.56;99151.69;3072212;46;20439;-67
2023/10/29 08:51:41;;;;;;;3.33;1.33;;;16.30;93.10;;;17.83;63.37;99156.78;3080012;46;20501;-69
2023/10/29 08:54:09;;;;;;;2.77;1.13;;;16.30;93.10;;;17.82;63.37;99147.97;3081192;46;20993;-67
2023/10/29 08:56:37;;;;;;;3.53;1.00;;;16.30;92.90;;;17.84;63.55;99153.03;3079880;46;20427;-68
2023/10/29 08:59:06;;;;;;;1.47;0.90;;;16.40;92.90;;;17.94;63.18;99151.22;3080541;46;20431;-67
2023/10/29 09:01:35;;;;;;;1.63;0.90;;;16.40;93.00;;;17.96;62.80;99153.59;3080765;46;20504;-67
2023/10/29 09:04:04;;;;;;;1.53;1.27;;;16.50;92.60;;;18.12;62.52;99157.91;3082996;46;20427;-67
2023/10/29 09:06:33;;;;;;;1.30;0.87;;;16.50;92.70;;;18.27;62.29;99171.28;3082168;46;20427;-69
2023/10/29 09:09:02;;;;;;;4.00;1.00;;;16.60;92.50;;;18.38;61.65;99175.56;3081688;46;20426;-68
2023/10/29 09:11:30;;;;;;;2.03;1.00;;;16.70;92.30;;;18.60;61.90;99186.81;3083170;46;20438;-66
2023/10/29 09:14:01;;;;;;;1.57;0.80;;;16.80;92.40;;;18.74;61.30;99206.56;3082890;46;20587;-67
2023/10/29 09:16:29;;;;;;;1.67;0.83;;;16.90;92.20;;;18.74;60.26;99221.75;3082795;46;21087;-67
2023/10/29 09:18:57;;;;;;;2.60;1.13;;;17.00;91.50;;;18.64;57.76;99221.72;3081978;46;20430;-69
2023/10/29 09:21:27;;;;;;;3.37;0.90;;;17.00;90.40;;;18.59;58.13;99227.84;3082650;46;20446;-67
2023/10/29 09:23:55;;;;;;;1.90;1.07;;;17.10;89.60;;;18.61;58.22;99236.38;3082899;46;20455;-69
2023/10/29 09:26:23;;;;;;;3.43;1.10;;;17.20;90.00;;;18.67;58.82;99230.00;3082063;46;20477;-68
2023/10/29 09:28:52;;;;;;;1.70;1.00;;;17.10;90.10;;;18.73;58.82;99244.94;3081516;46;20540;-69
2023/10/29 09:31:20;;;;;;;1.43;1.00;;;17.10;90.30;;;18.77;59.09;99246.03;3082166;46;20549;-67
2023/10/29 09:33:49;;;;;;;3.77;0.97;;;17.20;90.40;;;18.78;58.63;99247.63;3082881;46;20540;-67
2023/10/29 09:36:18;;;;;;;3.57;1.00;;;17.10;90.40;;;18.78;58.36;99247.63;3082850;46;20509;-66
2023/10/29 09:38:46;;;;;;;1.60;1.20;;;17.10;90.20;;;18.76;58.47;99268.41;3081715;46;20619;-67
2023/10/29 09:41:18;;;;;;;2.20;0.90;;;17.10;90.20;;;18.78;58.55;99257.47;3081521;46;20434;-69
2023/10/29 09:43:47;;;;;;;2.40;1.00;;;17.10;90.00;;;18.86;58.29;99265.78;3083304;46;20459;-67
2023/10/29 09:46:15;;;;;;;2.47;1.17;;;17.10;90.00;;;18.83;56.84;99255.63;3082038;46;20459;-69
2023/10/29 09:48:44;;;;;;;2.40;0.90;;;17.20;88.60;;;18.82;57.28;99269.22;3081871;46;20438;-67
2023/10/29 09:51:14;;;;;;;2.03;0.90;;;17.10;88.00;;;18.78;57.25;99274.28;3082458;46;21035;-68
2023/10/29 09:53:43;;;;;;;1.10;0.80;;;17.20;88.00;;;18.74;57.63;99281.22;3082918;46;20428;-67
2023/10/29 09:56:12;;;;;;;1.87;1.13;;;17.10;88.60;;;18.71;56.97;99284.41;3081874;46;20528;-67
2023/10/29 09:58:42;;;;;;;3.80;1.10;;;17.10;88.20;;;18.64;56.71;99283.84;3081269;46;20572;-67
2023/10/29 10:01:10;;;;;;;2.67;0.93;;;17.10;87.70;;;18.58;56.38;99284.09;3082045;46;20539;-67
2023/10/29 10:03:39;;;;;;;1.83;0.90;;;17.10;87.30;;;18.59;56.59;99281.16;3082439;46;21095;-68
2023/10/29 10:06:12;;;;;;;1.07;0.90;;;17.10;88.00;;;18.67;56.89;99288.66;3082502;46;20451;-67
2023/10/29 10:08:40;;;;;;;4.10;1.20;;;17.10;87.60;;;18.75;56.69;99285.50;3080937;46;20427;-67
2023/10/29 10:11:22;;;;;;;3.90;0.93;;;17.20;87.80;;;18.80;57.12;99298.81;3082070;46;20463;-67
2023/10/29 10:13:51;;;;;;;3.00;1.37;;;17.30;87.70;;;18.89;56.91;99297.25;3081445;46;21013;-68
2023/10/29 10:16:20;;;;;;;2.40;1.27;;;17.30;87.70;;;18.96;56.61;99317.50;3081970;46;20484;-64
2023/10/29 10:18:58;;;;;;;3.53;1.40;;;17.30;87.60;;;18.96;55.86;99306.84;3080277;46;20636;-68
2023/10/29 10:21:43;;;;;;;3.30;1.43;;;17.40;86.80;;;18.94;56.23;99310.56;3081460;46;20460;-67
2023/10/29 10:24:12;;;;;;;2.67;1.50;;;17.50;87.00;;;19.04;56.86;99320.44;3082214;46;20469;-69
2023/10/29 10:26:40;;;;;;;3.03;1.37;;;17.50;87.30;;;19.07;55.85;99327.94;3081828;46;20427;-69